createdAt,value
2019-01-06T00:01:12.836Z,3.33
2019-01-06T00:04:14.182Z,3.34
2019-01-06T00:07:05.838Z,3.34
2019-01-06T00:09:56.019Z,3.38
2019-01-06T00:13:02.940Z,3.34
2019-01-06T00:15:53.015Z,3.33
2019-01-06T00:18:53.710Z,3.41
2019-01-06T00:21:38.916Z,3.37
2019-01-06T00:24:29.442Z,3.42
2019-01-06T00:30:37.354Z,3.49
2019-01-06T00:33:28.906Z,3.51
2019-01-06T00:36:20.478Z,3.41
2019-01-06T00:39:07.347Z,3.38
2019-01-06T00:41:58.943Z,3.36
2019-01-06T00:44:50.504Z,3.47
2019-01-06T00:47:32.409Z,3.50
2019-01-06T00:50:46.482Z,3.54
2019-01-06T00:53:38.102Z,3.49
2019-01-06T00:56:26.195Z,3.60
2019-01-06T00:59:17.772Z,3.52
2019-01-06T01:02:09.380Z,3.47
2019-01-06T01:05:00.943Z,3.56
2019-01-06T01:07:52.642Z,3.48
2019-01-06T01:10:44.222Z,3.48
2019-01-06T01:13:35.945Z,3.41
2019-01-06T01:16:27.484Z,3.42
2019-01-06T01:19:19.102Z,3.36
2019-01-06T01:22:10.659Z,3.43
2019-01-06T01:25:02.240Z,3.51
2019-01-06T01:27:53.775Z,3.42
2019-01-06T01:30:45.330Z,3.50
2019-01-06T01:33:36.930Z,3.74
2019-01-06T01:36:28.454Z,3.57
2019-01-06T01:39:20.021Z,3.54
2019-01-06T01:42:11.560Z,3.47
2019-01-06T01:45:03.141Z,3.37
2019-01-06T01:47:54.700Z,3.42
2019-01-06T01:50:37.933Z,3.51
2019-01-06T01:53:29.493Z,3.46
2019-01-06T01:56:21.033Z,3.50
2019-01-06T01:59:12.650Z,3.54
2019-01-06T02:02:04.207Z,3.51
2019-01-06T02:04:55.748Z,3.59
2019-01-06T02:07:47.286Z,3.53
2019-01-06T02:10:38.851Z,3.64
2019-01-06T02:13:30.390Z,3.59
2019-01-06T02:16:21.969Z,3.45
2019-01-06T02:19:16.614Z,3.46
2019-01-06T02:22:13.995Z,3.45
2019-01-06T02:25:04.461Z,3.43
2019-01-06T02:27:56.049Z,3.52
2019-01-06T02:30:56.742Z,3.48
2019-01-06T02:33:54.213Z,3.55
2019-01-06T02:37:04.025Z,3.51
2019-01-06T02:39:58.523Z,3.48
2019-01-06T02:42:47.500Z,3.39
2019-01-06T02:45:45.196Z,3.38
2019-01-06T02:48:36.489Z,3.46
2019-01-06T02:51:30.832Z,3.44
2019-01-06T02:54:20.365Z,3.49
2019-01-06T02:57:10.389Z,3.39
2019-01-06T03:00:20.320Z,3.51
2019-01-06T03:03:11.935Z,3.39
2019-01-06T03:06:09.258Z,3.38
2019-01-06T03:08:58.368Z,3.40
2019-01-06T03:11:50.733Z,3.37
2019-01-06T03:14:42.324Z,3.47
2019-01-06T03:17:33.891Z,3.48
2019-01-06T03:20:37.787Z,3.41
2019-01-06T03:23:35.217Z,3.37
2019-01-06T03:26:25.352Z,3.38
2019-01-06T03:29:15.805Z,3.35
2019-01-06T03:32:07.352Z,3.45
2019-01-06T03:34:58.940Z,3.42
2019-01-06T03:37:48.935Z,3.45
2019-01-06T03:40:40.620Z,3.46
2019-01-06T03:43:34.977Z,3.41
2019-01-06T03:46:35.733Z,3.39
2019-01-06T03:49:26.106Z,3.49
2019-01-06T03:52:27.987Z,3.44
2019-01-06T03:55:28.451Z,3.38
2019-01-06T03:58:35.288Z,3.44
2019-01-06T04:01:30.038Z,3.39
2019-01-06T04:04:11.186Z,3.35
2019-01-06T04:07:02.761Z,3.38
2019-01-06T04:10:03.482Z,3.41
2019-01-06T04:12:57.899Z,3.42
2019-01-06T04:15:50.474Z,3.40
2019-01-06T04:18:40.649Z,3.44
2019-01-06T04:21:32.262Z,3.44
2019-01-06T04:24:22.168Z,3.44
2019-01-06T04:27:13.848Z,3.49
2019-01-06T04:30:03.354Z,3.52
2019-01-06T04:32:53.137Z,3.54
2019-01-06T04:35:43.394Z,3.64
2019-01-06T04:38:33.883Z,3.60
2019-01-06T04:41:40.757Z,3.57
2019-01-06T04:44:38.195Z,3.47
2019-01-06T04:47:26.007Z,3.44
2019-01-06T04:50:16.173Z,3.46
2019-01-06T04:53:06.664Z,3.45
2019-01-06T04:56:04.323Z,3.43
2019-01-06T04:59:07.992Z,3.39
2019-01-06T05:02:05.350Z,3.51
2019-01-06T05:05:12.057Z,3.46
2019-01-06T05:08:15.678Z,3.41
2019-01-06T05:11:10.049Z,3.38
2019-01-06T05:14:13.897Z,3.42
2019-01-06T05:16:59.275Z,3.39
2019-01-06T05:19:51.334Z,3.39
2019-01-06T05:22:41.812Z,3.47
2019-01-06T05:25:39.748Z,3.42
2019-01-06T05:28:43.341Z,3.43
2019-01-06T05:31:33.590Z,3.43
2019-01-06T05:34:24.216Z,3.44
2019-01-06T05:37:14.889Z,3.52
2019-01-06T05:40:21.876Z,3.49
2019-01-06T05:43:12.172Z,3.50
2019-01-06T05:46:12.791Z,3.51
2019-01-06T05:49:07.114Z,3.50
2019-01-06T05:52:10.740Z,3.50
2019-01-06T05:55:11.204Z,3.54
2019-01-06T05:58:08.787Z,3.54
2019-01-06T06:01:00.364Z,3.52
2019-01-06T06:03:50.563Z,3.52
2019-01-06T06:06:48.458Z,3.51
2019-01-06T06:09:38.683Z,3.51
2019-01-06T06:12:30.293Z,3.54
2019-01-06T06:15:20.478Z,3.53
2019-01-06T06:18:10.971Z,3.54
2019-01-06T06:21:01.484Z,3.60
2019-01-06T06:23:52.130Z,3.55
2019-01-06T06:26:59.058Z,3.51
2019-01-06T06:30:02.859Z,3.48
2019-01-06T06:32:59.556Z,3.46
2019-01-06T06:35:50.210Z,3.49
2019-01-06T06:38:40.825Z,3.49
2019-01-06T06:41:32.442Z,3.48
2019-01-06T06:44:22.493Z,3.48
2019-01-06T06:47:29.373Z,3.59
2019-01-06T06:50:29.744Z,3.58
2019-01-06T06:53:36.405Z,3.52
2019-01-06T06:56:43.266Z,3.56
2019-01-06T06:59:37.731Z,3.67
2019-01-06T07:03:08.884Z,3.54
2019-01-06T07:06:15.968Z,3.49
2019-01-06T07:09:06.372Z,3.45
2019-01-06T07:11:57.986Z,3.44
2019-01-06T07:15:07.994Z,3.46
2019-01-06T07:18:12.695Z,3.43
2019-01-06T07:21:08.871Z,3.45
2019-01-06T07:23:59.350Z,3.44
2019-01-06T07:26:48.602Z,3.48
2019-01-06T07:29:39.164Z,3.47
2019-01-06T07:32:46.050Z,3.46
2019-01-06T07:35:36.191Z,3.44
2019-01-06T07:38:29.086Z,3.45
2019-01-06T07:41:19.515Z,3.45
2019-01-06T07:44:09.973Z,3.47
2019-01-06T07:47:00.417Z,3.48
2019-01-06T07:49:53.856Z,3.48
2019-01-06T07:53:00.867Z,3.55
2019-01-06T07:55:51.225Z,3.54
2019-01-06T07:58:45.555Z,3.55
2019-01-06T08:01:35.791Z,3.56
2019-01-06T08:04:33.501Z,3.55
2019-01-06T08:07:23.654Z,3.56
2019-01-06T08:10:21.304Z,3.67
2019-01-06T08:13:20.490Z,3.66
2019-01-06T08:16:12.104Z,3.61
2019-01-06T08:19:06.826Z,3.60
2019-01-06T08:22:08.295Z,3.63
2019-01-06T08:28:06.197Z,3.73
2019-01-06T08:30:59.717Z,3.70
2019-01-06T08:34:09.425Z,3.72
2019-01-06T08:36:59.546Z,3.69
2019-01-06T08:39:51.104Z,3.72
2019-01-06T08:42:46.123Z,3.74
2019-01-06T08:45:53.984Z,3.74
2019-01-06T08:48:51.397Z,3.73
2019-01-06T08:51:45.965Z,3.75
2019-01-06T08:54:49.586Z,3.78
2019-01-06T08:57:50.228Z,3.79
2019-01-06T09:00:47.855Z,3.81
2019-01-06T09:03:41.982Z,3.82
2019-01-06T09:06:42.854Z,3.84
2019-01-06T09:09:33.096Z,3.82
2019-01-06T09:12:20.837Z,3.80
2019-01-06T09:15:16.481Z,3.79
2019-01-06T09:18:08.158Z,3.82
2019-01-06T09:20:58.673Z,3.84
2019-01-06T09:24:05.637Z,3.82
2019-01-06T09:26:55.895Z,3.83
2019-01-06T09:29:50.652Z,3.86
2019-01-06T09:33:00.388Z,3.85
2019-01-06T09:35:54.633Z,3.86
2019-01-06T09:38:51.998Z,3.90
2019-01-06T09:41:43.617Z,3.92
2019-01-06T09:44:34.096Z,3.93
2019-01-06T09:47:35.009Z,3.97
2019-01-06T09:50:38.702Z,3.95
2019-01-06T09:53:28.786Z,3.90
2019-01-06T09:56:19.309Z,3.95
2019-01-06T09:59:10.960Z,3.94
2019-01-06T10:02:21.099Z,3.89
2019-01-06T10:05:12.704Z,3.91
2019-01-06T10:08:01.742Z,4.03
2019-01-06T10:10:56.713Z,4.03
2019-01-06T10:13:57.293Z,4.03
2019-01-06T10:16:47.591Z,4.05
2019-01-06T10:19:48.355Z,4.09
2019-01-06T10:22:38.738Z,4.10
2019-01-06T10:25:29.336Z,4.12
2019-01-06T10:28:30.194Z,4.17
2019-01-06T10:31:21.811Z,4.15
2019-01-06T10:34:08.105Z,4.20
2019-01-06T10:36:58.276Z,4.23
2019-01-06T10:39:49.855Z,4.28
2019-01-06T10:42:41.482Z,4.28
2019-01-06T10:45:36.139Z,4.32
2019-01-06T10:48:36.615Z,4.28
2019-01-06T10:51:28.207Z,4.31
2019-01-06T10:54:25.446Z,4.31
2019-01-06T10:57:15.814Z,4.21
2019-01-06T11:00:26.038Z,4.36
2019-01-06T11:03:16.276Z,4.35
2019-01-06T11:06:26.269Z,4.37
2019-01-06T11:09:16.699Z,4.38
2019-01-06T11:12:10.859Z,4.38
2019-01-06T11:15:05.306Z,4.53
2019-01-06T11:17:59.926Z,4.48
2019-01-06T11:21:04.733Z,4.44
2019-01-06T11:23:56.403Z,4.51
2019-01-06T11:26:49.306Z,4.47
2019-01-06T11:29:39.776Z,4.58
2019-01-06T11:32:43.661Z,4.57
2019-01-06T11:35:33.922Z,4.60
2019-01-06T11:38:43.812Z,4.53
2019-01-06T11:41:47.608Z,4.50
2019-01-06T11:44:54.029Z,4.45
2019-01-06T11:47:54.703Z,4.45
2019-01-06T11:50:44.876Z,4.44
2019-01-06T11:53:36.890Z,4.42
2019-01-06T11:56:28.527Z,4.46
2019-01-06T11:59:35.236Z,4.41
2019-01-06T12:02:25.490Z,4.39
2019-01-06T12:05:32.057Z,4.48
2019-01-06T12:08:41.871Z,4.49
2019-01-06T12:11:32.077Z,4.43
2019-01-06T12:14:35.398Z,4.39
2019-01-06T12:17:36.054Z,4.39
2019-01-06T12:20:45.742Z,4.42
2019-01-06T12:23:37.398Z,4.48
2019-01-06T12:26:41.313Z,4.47
2019-01-06T12:29:38.761Z,4.45
2019-01-06T12:32:29.023Z,4.47
2019-01-06T12:35:23.655Z,4.50
2019-01-06T12:38:30.407Z,4.51
2019-01-06T12:41:20.825Z,4.40
2019-01-06T12:44:11.205Z,4.36
2019-01-06T12:47:12.025Z,4.38
2019-01-06T12:50:15.544Z,4.42
2019-01-06T12:53:19.247Z,4.47
2019-01-06T12:56:26.466Z,4.46
2019-01-06T12:59:33.494Z,4.43
2019-01-06T13:02:17.040Z,4.43
2019-01-06T13:05:07.541Z,4.43
2019-01-06T13:08:17.139Z,4.50
2019-01-06T13:11:11.743Z,4.56
2019-01-06T13:14:02.143Z,4.50
2019-01-06T13:16:59.654Z,4.47
2019-01-06T13:20:06.439Z,4.48
2019-01-06T13:22:56.621Z,4.47
2019-01-06T13:25:46.822Z,4.45
2019-01-06T13:28:37.360Z,4.45
2019-01-06T13:31:22.904Z,4.45
2019-01-06T13:34:14.497Z,4.47
2019-01-06T13:37:04.908Z,4.47
2019-01-06T13:39:55.466Z,4.48
2019-01-06T13:42:45.687Z,4.48
2019-01-06T13:45:36.123Z,4.49
2019-01-06T13:48:26.503Z,4.50
2019-01-06T13:51:27.245Z,4.47
2019-01-06T13:54:33.974Z,4.47
2019-01-06T13:57:24.297Z,4.40
2019-01-06T14:00:23.138Z,4.43
2019-01-06T14:03:27.025Z,4.44
2019-01-06T14:06:17.426Z,4.44
2019-01-06T14:09:12.433Z,4.43
2019-01-06T14:12:12.628Z,4.48
2019-01-06T14:15:04.262Z,4.47
2019-01-06T14:18:07.682Z,4.37
2019-01-06T14:21:03.367Z,4.31
2019-01-06T14:23:57.807Z,4.34
2019-01-06T14:27:05.369Z,4.34
2019-01-06T14:30:09.189Z,4.35
2019-01-06T14:33:10.174Z,4.33
2019-01-06T14:36:13.769Z,4.33
2019-01-06T14:39:20.519Z,4.34
2019-01-06T14:42:11.126Z,4.40
2019-01-06T14:45:01.776Z,4.36
2019-01-06T14:47:48.536Z,4.49
2019-01-06T14:50:40.176Z,4.35
2019-01-06T14:53:44.085Z,4.29
2019-01-06T14:56:34.277Z,4.29
2019-01-06T14:59:25.605Z,4.25
2019-01-06T15:02:15.929Z,4.25
2019-01-06T15:05:10.644Z,4.20
2019-01-06T15:08:00.888Z,4.20
2019-01-06T15:10:47.987Z,4.22
2019-01-06T15:13:48.659Z,4.22
2019-01-06T15:16:39.120Z,4.20
2019-01-06T15:19:30.783Z,4.23
2019-01-06T15:22:21.065Z,4.25
2019-01-06T15:25:14.082Z,4.24
2019-01-06T15:28:04.356Z,4.22
2019-01-06T15:30:54.990Z,4.19
2019-01-06T15:33:45.754Z,4.17
2019-01-06T15:36:36.444Z,4.15
2019-01-06T15:39:16.369Z,4.18
2019-01-06T15:42:19.800Z,4.19
2019-01-06T15:45:26.511Z,4.16
2019-01-06T15:48:31.598Z,4.19
2019-01-06T15:51:35.593Z,4.21
2019-01-06T15:54:29.983Z,4.12
2019-01-06T15:57:33.662Z,4.10
2019-01-06T16:00:34.715Z,4.12
2019-01-06T16:03:39.606Z,4.20
2019-01-06T16:06:30.137Z,4.20
2019-01-06T16:09:30.982Z,4.13
2019-01-06T16:12:21.224Z,4.11
2019-01-06T16:15:11.901Z,4.10
2019-01-06T16:18:02.472Z,4.17
2019-01-06T16:20:53.707Z,4.03
2019-01-06T16:23:44.600Z,4.06
2019-01-06T16:26:39.374Z,4.09
2019-01-06T16:29:31.024Z,4.13
2019-01-06T16:32:22.735Z,4.09
2019-01-06T16:35:20.684Z,4.04
2019-01-06T16:38:26.668Z,4.05
2019-01-06T16:41:27.553Z,4.03
2019-01-06T16:44:18.041Z,4.08
2019-01-06T16:47:27.980Z,4.12
2019-01-06T16:50:28.748Z,4.12
2019-01-06T16:53:19.006Z,4.19
2019-01-06T16:56:06.245Z,4.22
2019-01-06T16:58:57.903Z,4.13
2019-01-06T17:01:56.483Z,4.02
2019-01-06T17:04:46.687Z,3.97
2019-01-06T17:07:38.453Z,3.92
2019-01-06T17:10:42.329Z,3.96
2019-01-06T17:13:39.759Z,3.99
2019-01-06T17:16:30.000Z,3.99
2019-01-06T17:19:13.728Z,3.98
2019-01-06T17:22:13.683Z,4.01
2019-01-06T17:25:05.359Z,3.99
2019-01-06T17:27:57.454Z,3.93
2019-01-06T17:31:04.374Z,3.98
2019-01-06T17:34:07.961Z,3.94
2019-01-06T17:36:56.692Z,3.93
2019-01-06T17:39:46.655Z,4.02
2019-01-06T17:42:36.920Z,4.05
2019-01-06T17:45:27.220Z,3.96
2019-01-06T17:48:23.897Z,3.94
2019-01-06T17:51:27.773Z,3.92
2019-01-06T17:54:22.626Z,4.06
2019-01-06T17:57:32.781Z,4.03
2019-01-06T18:00:30.353Z,4.00
2019-01-06T18:03:27.783Z,3.94
2019-01-06T18:06:18.219Z,3.95
2019-01-06T18:09:09.967Z,3.91
2019-01-06T18:12:00.493Z,3.88
2019-01-06T18:15:10.548Z,3.87
2019-01-06T18:18:00.769Z,3.87
2019-01-06T18:20:50.952Z,3.86
2019-01-06T18:26:52.619Z,3.95
2019-01-06T18:30:02.555Z,3.99
2019-01-06T18:32:56.964Z,3.94
2019-01-06T18:35:42.281Z,3.88
2019-01-06T18:38:34.032Z,3.83
2019-01-06T18:41:24.568Z,3.96
2019-01-06T18:44:30.663Z,3.92
2019-01-06T18:47:29.002Z,3.95
2019-01-06T18:50:23.390Z,3.89
2019-01-06T18:53:13.786Z,3.88
2019-01-06T18:56:14.596Z,3.95
2019-01-06T18:59:00.985Z,3.90
2019-01-06T19:01:59.019Z,3.91
2019-01-06T19:04:55.251Z,4.04
2019-01-06T19:07:49.780Z,3.97
2019-01-06T19:10:44.173Z,3.89
2019-01-06T19:13:41.653Z,3.89
2019-01-06T19:16:51.691Z,3.95
2019-01-06T19:19:50.362Z,3.94
2019-01-06T19:22:37.631Z,4.02
2019-01-06T19:25:29.277Z,3.92
2019-01-06T19:28:19.454Z,3.90
2019-01-06T19:31:11.944Z,3.94
2019-01-06T19:34:02.543Z,3.93
2019-01-06T19:36:54.171Z,3.94
2019-01-06T19:39:44.846Z,3.95
2019-01-06T19:42:51.813Z,3.99
2019-01-06T19:45:43.424Z,3.96
2019-01-06T19:48:30.240Z,3.99
2019-01-06T19:51:27.555Z,3.94
2019-01-06T19:54:31.292Z,3.92
2019-01-06T19:57:34.963Z,4.00
2019-01-06T20:00:35.419Z,4.01
2019-01-06T20:03:30.262Z,3.95
2019-01-06T20:06:24.919Z,3.97
2019-01-06T20:09:24.710Z,3.93
2019-01-06T20:12:15.468Z,3.95
2019-01-06T20:15:19.514Z,3.96
2019-01-06T20:18:11.186Z,3.97
2019-01-06T20:21:10.434Z,3.98
2019-01-06T20:24:00.797Z,3.98
2019-01-06T20:26:47.053Z,4.15
2019-01-06T20:29:37.538Z,3.97
2019-01-06T20:32:29.297Z,4.01
2019-01-06T20:35:20.901Z,3.99
2019-01-06T20:38:12.548Z,3.94
2019-01-06T20:41:04.298Z,3.99
2019-01-06T20:43:55.912Z,4.02
2019-01-06T20:46:47.982Z,4.02
2019-01-06T20:49:39.577Z,4.02
2019-01-06T20:52:31.165Z,3.99
2019-01-06T20:55:22.776Z,3.95
2019-01-06T20:58:14.444Z,3.96
2019-01-06T21:01:04.830Z,4.01
2019-01-06T21:03:56.537Z,3.99
2019-01-06T21:06:52.202Z,3.98
2019-01-06T21:09:37.664Z,3.97
2019-01-06T21:12:28.159Z,4.04
2019-01-06T21:15:18.777Z,4.03
2019-01-06T21:18:09.190Z,4.04
2019-01-06T21:21:06.910Z,4.08
2019-01-06T21:23:51.733Z,4.04
2019-01-06T21:26:55.675Z,4.06
2019-01-06T21:29:53.219Z,4.01
2019-01-06T21:32:41.684Z,4.03
2019-01-06T21:35:36.267Z,4.02
2019-01-06T21:38:31.918Z,4.08
2019-01-06T21:41:22.402Z,4.10
2019-01-06T21:44:25.136Z,4.04
2019-01-06T21:47:19.544Z,4.04
2019-01-06T21:50:14.240Z,4.04
2019-01-06T21:53:14.881Z,4.01
2019-01-06T21:56:12.295Z,4.15
2019-01-06T21:59:03.224Z,4.08
2019-01-06T22:01:54.958Z,3.98
2019-01-06T22:04:53.332Z,4.09
2019-01-06T22:07:54.241Z,3.96
2019-01-06T22:10:45.913Z,3.97
2019-01-06T22:13:32.077Z,3.99
2019-01-06T22:16:24.968Z,3.98
2019-01-06T22:19:15.646Z,3.95
2019-01-06T22:22:06.150Z,3.97
2019-01-06T22:25:13.133Z,3.98
2019-01-06T22:28:13.660Z,4.02
2019-01-06T22:31:04.481Z,3.99
2019-01-06T22:34:05.295Z,4.01
2019-01-06T22:36:58.474Z,3.95
2019-01-06T22:39:53.160Z,3.95
2019-01-06T22:42:47.797Z,4.01
2019-01-06T22:45:54.721Z,4.02
2019-01-06T22:48:42.247Z,4.00
2019-01-06T22:51:36.584Z,3.94
2019-01-06T22:54:28.208Z,4.01
2019-01-06T22:57:18.715Z,4.00
2019-01-06T23:00:09.309Z,4.04
2019-01-06T23:02:57.230Z,4.02
2019-01-06T23:05:48.826Z,4.03
2019-01-06T23:08:45.478Z,4.14
2019-01-06T23:11:27.651Z,4.05
2019-01-06T23:14:18.078Z,4.02
2019-01-06T23:16:59.643Z,3.97
2019-01-06T23:19:51.803Z,3.93
2019-01-06T23:22:46.577Z,3.97
2019-01-06T23:25:50.405Z,3.94
2019-01-06T23:28:48.247Z,3.95
2019-01-06T23:31:39.859Z,4.03
2019-01-06T23:34:31.505Z,4.06
2019-01-06T23:37:35.035Z,4.15
2019-01-06T23:40:32.532Z,4.03
2019-01-06T23:43:17.241Z,3.97
2019-01-06T23:46:09.167Z,3.92
2019-01-06T23:48:59.430Z,3.95
2019-01-06T23:52:03.303Z,4.04
2019-01-06T23:55:06.951Z,3.96
2019-01-06T23:58:01.336Z,3.94
